createdAt,value
2023-04-27T00:00:36.951Z,9.85714
2023-04-27T00:01:37.000Z,9.78571
2023-04-27T00:02:37.118Z,9.78571
2023-04-27T00:03:37.189Z,9.78571
2023-04-27T00:04:37.318Z,9.78571
2023-04-27T00:05:37.250Z,9.78571
2023-04-27T00:06:37.190Z,9.78571
2023-04-27T00:07:37.227Z,9.78571
2023-04-27T00:08:37.280Z,9.78571
2023-04-27T00:09:37.355Z,9.78571
2023-04-27T00:10:37.359Z,9.78571
2023-04-27T00:11:37.394Z,9.78571
2023-04-27T00:12:37.457Z,9.78571
2023-04-27T00:13:37.486Z,9.71429
2023-04-27T00:14:37.532Z,9.71429
2023-04-27T00:15:37.581Z,9.71429
2023-04-27T00:16:37.752Z,9.71429
2023-04-27T00:17:37.781Z,9.71429
2023-04-27T00:18:37.667Z,9.71429
2023-04-27T00:19:37.715Z,9.71429
2023-04-27T00:20:37.771Z,9.71429
2023-04-27T00:21:37.796Z,9.71429
2023-04-27T00:22:37.846Z,9.71429
2023-04-27T00:23:37.881Z,9.71429
2023-04-27T00:24:37.920Z,9.71429
2023-04-27T00:25:37.970Z,9.64286
2023-04-27T00:26:38.007Z,9.64286
2023-04-27T00:27:38.047Z,9.64286
2023-04-27T00:28:38.088Z,9.64286
2023-04-27T00:29:38.117Z,9.64286
2023-04-27T00:30:38.174Z,9.64286
2023-04-27T00:31:38.254Z,9.64286
2023-04-27T00:32:38.281Z,9.64286
2023-04-27T00:33:38.287Z,9.64286
2023-04-27T00:34:38.328Z,9.64286
2023-04-27T00:35:38.364Z,9.64286
2023-04-27T00:36:38.407Z,9.64286
2023-04-27T00:37:38.444Z,9.57143
2023-04-27T00:38:38.525Z,9.64286
2023-04-27T00:39:38.568Z,9.64286
2023-04-27T00:40:38.567Z,9.57143
2023-04-27T00:41:38.602Z,9.57143
2023-04-27T00:42:38.637Z,9.57143
2023-04-27T00:43:38.689Z,9.57143
2023-04-27T00:44:39.912Z,9.57143
2023-04-27T00:45:38.794Z,9.57143
2023-04-27T00:46:38.821Z,9.57143
2023-04-27T00:47:38.870Z,9.57143
2023-04-27T00:48:38.887Z,9.5
2023-04-27T00:49:38.944Z,9.5
2023-04-27T00:50:38.978Z,9.5
2023-04-27T00:51:39.025Z,9.5
2023-04-27T00:52:39.078Z,9.5
2023-04-27T00:53:39.141Z,9.5
2023-04-27T00:54:39.156Z,9.5
2023-04-27T00:55:39.192Z,9.5
2023-04-27T00:56:39.229Z,9.5
2023-04-27T00:57:39.275Z,9.5
2023-04-27T00:58:39.315Z,9.5
2023-04-27T00:59:39.371Z,9.5
2023-04-27T01:00:39.407Z,9.5
2023-04-27T01:01:39.475Z,9.5
2023-04-27T01:02:39.631Z,9.5
2023-04-27T01:03:39.800Z,9.5
2023-04-27T01:04:39.657Z,9.5
2023-04-27T01:05:39.621Z,9.5
2023-04-27T01:06:39.652Z,9.5
2023-04-27T01:07:39.748Z,9.5
2023-04-27T01:08:39.743Z,9.42857
2023-04-27T01:09:39.783Z,9.42857
2023-04-27T01:10:39.837Z,9.42857
2023-04-27T01:11:39.880Z,9.42857
2023-04-27T01:12:39.951Z,9.42857
2023-04-27T01:13:39.961Z,9.42857
2023-04-27T01:14:40.007Z,9.42857
2023-04-27T01:15:40.050Z,9.42857
2023-04-27T01:16:40.120Z,9.42857
2023-04-27T01:17:40.255Z,9.35714
2023-04-27T01:18:40.176Z,9.35714
2023-04-27T01:19:40.213Z,9.35714
2023-04-27T01:20:40.256Z,9.35714
2023-04-27T01:21:40.292Z,9.35714
2023-04-27T01:22:40.352Z,9.35714
2023-04-27T01:23:40.387Z,9.35714
2023-04-27T01:24:40.425Z,9.28571
2023-04-27T01:25:40.467Z,9.28571
2023-04-27T01:26:40.535Z,9.28571
2023-04-27T01:27:40.558Z,9.28571
2023-04-27T01:28:40.601Z,9.21429
2023-04-27T01:29:40.655Z,9.21429
2023-04-27T01:30:40.694Z,9.21429
2023-04-27T01:31:40.803Z,9.28571
2023-04-27T01:32:40.828Z,9.21429
2023-04-27T01:33:40.813Z,9.28571
2023-04-27T01:34:40.848Z,9.21429
2023-04-27T01:35:40.891Z,9.21429
2023-04-27T01:36:40.932Z,9.21429
2023-04-27T01:37:40.979Z,9.21429
2023-04-27T01:38:41.094Z,9.21429
2023-04-27T01:39:41.064Z,9.21429
2023-04-27T01:40:41.104Z,9.14286
2023-04-27T01:41:41.146Z,9.14286
2023-04-27T01:42:41.184Z,9.14286
2023-04-27T01:43:41.257Z,9.14286
2023-04-27T01:44:41.271Z,9.14286
2023-04-27T01:45:41.320Z,9.14286
2023-04-27T01:46:41.502Z,9.14286
2023-04-27T01:47:41.415Z,9.14286
2023-04-27T01:48:41.470Z,9.14286
2023-04-27T01:49:41.495Z,9.14286
2023-04-27T01:50:41.530Z,9.14286
2023-04-27T01:51:41.581Z,9.14286
2023-04-27T01:52:41.618Z,9.14286
2023-04-27T01:53:41.654Z,9.14286
2023-04-27T01:54:41.712Z,9.14286
2023-04-27T01:55:41.761Z,9.14286
2023-04-27T01:56:41.783Z,9.14286
2023-04-27T01:57:41.823Z,9.14286
2023-04-27T01:58:41.868Z,9.14286
2023-04-27T01:59:41.904Z,9.14286
2023-04-27T02:00:41.941Z,9.14286
2023-04-27T02:01:42.070Z,9.14286
2023-04-27T02:02:42.209Z,9.14286
2023-04-27T02:03:42.349Z,9.14286
2023-04-27T02:04:42.319Z,9.14286
2023-04-27T02:05:42.166Z,9.07143
2023-04-27T02:06:42.207Z,9.07143
2023-04-27T02:07:42.258Z,9.07143
2023-04-27T02:08:42.308Z,9.07143
2023-04-27T02:09:42.504Z,9.07143
2023-04-27T02:10:42.370Z,9
2023-04-27T02:11:42.417Z,9
2023-04-27T02:12:42.452Z,9
2023-04-27T02:13:42.503Z,9
2023-04-27T02:14:42.550Z,9
2023-04-27T02:15:42.626Z,9
2023-04-27T02:16:42.886Z,9
2023-04-27T02:17:42.705Z,9
2023-04-27T02:18:42.711Z,9
2023-04-27T02:19:42.746Z,9
2023-04-27T02:20:42.774Z,9
2023-04-27T02:21:42.829Z,9
2023-04-27T02:22:42.861Z,9
2023-04-27T02:23:42.908Z,9
2023-04-27T02:24:42.957Z,9
2023-04-27T02:25:43.004Z,9.07143
2023-04-27T02:26:43.036Z,9.07143
2023-04-27T02:27:43.080Z,9.07143
2023-04-27T02:28:43.120Z,9.07143
2023-04-27T02:29:43.164Z,9.07143
2023-04-27T02:30:43.195Z,9.07143
2023-04-27T02:31:43.282Z,9.07143
2023-04-27T02:32:43.288Z,9.07143
2023-04-27T02:33:43.323Z,9.07143
2023-04-27T02:34:43.364Z,9.07143
2023-04-27T02:35:43.401Z,9.07143
2023-04-27T02:36:43.448Z,9.07143
2023-04-27T02:37:43.479Z,9.07143
2023-04-27T02:38:43.517Z,9.07143
2023-04-27T02:39:43.572Z,9.07143
2023-04-27T02:40:43.611Z,9.07143
2023-04-27T02:41:43.652Z,9.07143
2023-04-27T02:42:43.703Z,9.07143
2023-04-27T02:43:43.735Z,9.07143
2023-04-27T02:44:43.780Z,9.07143
2023-04-27T02:45:43.832Z,9.07143
2023-04-27T02:46:43.882Z,9.07143
2023-04-27T02:47:43.984Z,9.07143
2023-04-27T02:48:43.948Z,9.07143
2023-04-27T02:49:43.981Z,9
2023-04-27T02:50:44.030Z,9
2023-04-27T02:51:44.102Z,9
2023-04-27T02:52:44.121Z,9
2023-04-27T02:53:44.153Z,9.07143
2023-04-27T02:54:44.190Z,9.07143
2023-04-27T02:55:44.232Z,9.07143
2023-04-27T02:56:44.296Z,9.07143
2023-04-27T02:57:44.313Z,9
2023-04-27T02:58:44.349Z,9
2023-04-27T02:59:44.398Z,9
2023-04-27T03:00:44.466Z,9
2023-04-27T03:01:44.506Z,9
2023-04-27T03:02:44.713Z,9
2023-04-27T03:03:44.679Z,9
2023-04-27T03:04:44.725Z,9
2023-04-27T03:05:44.663Z,9
2023-04-27T03:06:44.718Z,9
2023-04-27T03:07:44.751Z,8.92857
2023-04-27T03:08:44.789Z,8.92857
2023-04-27T03:09:44.840Z,8.92857
2023-04-27T03:10:44.880Z,8.92857
2023-04-27T03:11:44.909Z,9
2023-04-27T03:12:44.984Z,8.92857
2023-04-27T03:13:44.993Z,8.92857
2023-04-27T03:14:45.036Z,8.92857
2023-04-27T03:15:45.086Z,8.92857
2023-04-27T03:16:45.148Z,8.92857
2023-04-27T03:17:45.250Z,8.92857
2023-04-27T03:18:45.211Z,8.85714
2023-04-27T03:19:45.252Z,8.85714
2023-04-27T03:20:45.281Z,8.85714
2023-04-27T03:21:45.324Z,8.85714
2023-04-27T03:22:45.377Z,8.85714
2023-04-27T03:23:45.397Z,8.85714
2023-04-27T03:24:45.446Z,8.85714
2023-04-27T03:25:45.489Z,8.78571
2023-04-27T03:26:45.546Z,8.78571
2023-04-27T03:27:45.559Z,8.78571
2023-04-27T03:28:45.609Z,8.85714
2023-04-27T03:29:45.639Z,8.85714
2023-04-27T03:30:45.683Z,8.78571
2023-04-27T03:31:45.770Z,8.78571
2023-04-27T03:32:47.772Z,8.85714
2023-04-27T03:33:45.796Z,8.85714
2023-04-27T03:34:45.835Z,8.85714
2023-04-27T03:35:45.880Z,8.85714
2023-04-27T03:36:45.911Z,8.85714
2023-04-27T03:37:45.987Z,8.85714
2023-04-27T03:38:46.316Z,8.85714
2023-04-27T03:39:46.064Z,8.85714
2023-04-27T03:40:46.090Z,8.85714
2023-04-27T03:41:46.137Z,8.85714
2023-04-27T03:42:46.200Z,8.85714
2023-04-27T03:43:46.227Z,8.85714
2023-04-27T03:44:46.260Z,8.85714
2023-04-27T03:45:46.323Z,8.85714
2023-04-27T03:46:46.344Z,8.85714
2023-04-27T03:47:46.410Z,8.85714
2023-04-27T03:48:46.449Z,8.85714
2023-04-27T03:49:46.468Z,8.85714
2023-04-27T03:50:46.516Z,8.85714
2023-04-27T03:51:46.547Z,8.85714
2023-04-27T03:52:46.593Z,8.85714
2023-04-27T03:53:46.655Z,8.85714
2023-04-27T03:54:46.676Z,8.85714
2023-04-27T03:55:46.726Z,8.85714
2023-04-27T03:56:46.760Z,8.85714
2023-04-27T03:57:46.800Z,8.85714
2023-04-27T03:58:46.888Z,8.85714
2023-04-27T03:59:46.896Z,8.85714
2023-04-27T04:00:46.920Z,8.85714
2023-04-27T04:01:46.997Z,8.85714
2023-04-27T04:02:47.181Z,8.85714
2023-04-27T04:03:47.181Z,8.85714
2023-04-27T04:04:47.200Z,8.85714
2023-04-27T04:05:47.249Z,8.85714
2023-04-27T04:06:47.158Z,8.85714
2023-04-27T04:07:47.201Z,8.85714
2023-04-27T04:08:47.241Z,8.85714
2023-04-27T04:09:47.294Z,8.85714
2023-04-27T04:10:47.331Z,8.85714
2023-04-27T04:11:47.367Z,8.85714
2023-04-27T04:12:47.409Z,8.85714
2023-04-27T04:13:47.440Z,8.92857
2023-04-27T04:14:47.484Z,8.85714
2023-04-27T04:15:47.592Z,8.85714
2023-04-27T04:16:47.574Z,8.85714
2023-04-27T04:17:47.710Z,8.85714
2023-04-27T04:18:47.637Z,8.85714
2023-04-27T04:19:47.683Z,8.85714
2023-04-27T04:20:47.737Z,8.92857
2023-04-27T04:21:47.791Z,8.85714
2023-04-27T04:22:47.817Z,8.92857
2023-04-27T04:23:47.857Z,8.92857
2023-04-27T04:24:47.903Z,8.92857
2023-04-27T04:25:47.930Z,8.92857
2023-04-27T04:26:47.978Z,8.92857
2023-04-27T04:27:48.021Z,8.92857
2023-04-27T04:28:48.067Z,8.92857
2023-04-27T04:29:48.104Z,9
2023-04-27T04:30:48.163Z,9
2023-04-27T04:31:48.291Z,9
2023-04-27T04:32:48.250Z,9
2023-04-27T04:33:48.260Z,9
2023-04-27T04:34:48.306Z,9
2023-04-27T04:35:48.381Z,9
2023-04-27T04:36:48.381Z,9
2023-04-27T04:37:48.423Z,9.07143
2023-04-27T04:38:48.471Z,9.07143
2023-04-27T04:39:48.510Z,9.07143
2023-04-27T04:40:48.569Z,9.07143
2023-04-27T04:41:48.592Z,9.07143
2023-04-27T04:42:48.634Z,9.07143
2023-04-27T04:43:48.660Z,9.07143
2023-04-27T04:44:48.695Z,9.14286
2023-04-27T04:45:48.735Z,9.14286
2023-04-27T04:46:48.829Z,9.14286
2023-04-27T04:47:48.859Z,9.14286
2023-04-27T04:48:48.864Z,9.14286
2023-04-27T04:49:48.908Z,9.21429
2023-04-27T04:50:48.960Z,9.21429
2023-04-27T04:51:48.984Z,9.21429
2023-04-27T04:52:49.027Z,9.28571
2023-04-27T04:53:49.062Z,9.28571
2023-04-27T04:54:49.112Z,9.28571
2023-04-27T04:55:49.151Z,9.28571
2023-04-27T04:56:49.193Z,9.35714
2023-04-27T04:57:49.222Z,9.35714
2023-04-27T04:58:49.256Z,9.35714
2023-04-27T04:59:49.294Z,9.35714
2023-04-27T05:00:49.338Z,9.42857
2023-04-27T05:01:49.412Z,9.42857
2023-04-27T05:02:49.625Z,9.42857
2023-04-27T05:03:49.593Z,9.42857
2023-04-27T05:04:49.578Z,9.5
2023-04-27T05:05:49.523Z,9.5
2023-04-27T05:06:49.574Z,9.5
2023-04-27T05:07:49.597Z,9.5
2023-04-27T05:08:49.638Z,9.57143
2023-04-27T05:09:49.683Z,9.57143
2023-04-27T05:10:49.731Z,9.57143
2023-04-27T05:11:49.760Z,9.64286
2023-04-27T05:12:49.797Z,9.64286
2023-04-27T05:13:49.833Z,9.71429
2023-04-27T05:14:49.875Z,9.71429
2023-04-27T05:15:49.923Z,9.78571
2023-04-27T05:16:49.950Z,9.78571
2023-04-27T05:17:50.038Z,9.78571
2023-04-27T05:18:50.032Z,9.85714
2023-04-27T05:19:50.070Z,9.85714
2023-04-27T05:20:50.122Z,9.92857
2023-04-27T05:21:50.148Z,9.92857
2023-04-27T05:22:50.236Z,9.92857
2023-04-27T05:23:50.250Z,10
2023-04-27T05:24:50.270Z,10
2023-04-27T05:25:50.315Z,10
2023-04-27T05:26:50.360Z,10.0714
2023-04-27T05:27:50.411Z,10.0714
2023-04-27T05:28:50.435Z,10.1429
2023-04-27T05:29:50.471Z,10.1429
2023-04-27T05:30:50.520Z,10.1429
2023-04-27T05:31:50.603Z,10.2143
2023-04-27T05:32:50.712Z,10.2143
2023-04-27T05:33:50.643Z,10.2857
2023-04-27T05:34:50.700Z,10.3571
2023-04-27T05:35:50.726Z,10.3571
2023-04-27T05:36:50.777Z,10.4286
2023-04-27T05:37:50.813Z,10.4286
2023-04-27T05:38:50.847Z,10.5
2023-04-27T05:39:50.889Z,10.5
2023-04-27T05:40:50.935Z,10.5
2023-04-27T05:41:50.975Z,10.5714
2023-04-27T05:42:51.019Z,10.5714
2023-04-27T05:43:51.056Z,10.6429
2023-04-27T05:44:51.083Z,10.6429
2023-04-27T05:45:51.139Z,10.6429
2023-04-27T05:46:51.172Z,10.6429
2023-04-27T05:47:51.223Z,10.7143
2023-04-27T05:48:51.247Z,10.7143
2023-04-27T05:49:51.289Z,10.7857
2023-04-27T05:50:51.334Z,10.7857
2023-04-27T05:51:51.366Z,10.8571
2023-04-27T05:52:51.416Z,10.8571
2023-04-27T05:53:51.461Z,10.8571
2023-04-27T05:54:51.494Z,10.8571
2023-04-27T05:55:51.536Z,10.9286
2023-04-27T05:56:51.582Z,10.9286
2023-04-27T05:58:00.558Z,11
2023-04-27T05:58:51.661Z,11
2023-04-27T05:59:51.695Z,11
2023-04-27T06:00:51.743Z,11.0714
2023-04-27T06:01:51.808Z,11.1429
2023-04-27T06:02:51.988Z,11.2143
2023-04-27T06:03:52.050Z,11.3571
2023-04-27T06:04:51.946Z,11.5
2023-04-27T06:05:51.969Z,11.5714
2023-04-27T06:06:51.994Z,11.7857
2023-04-27T06:07:52.017Z,11.9286
2023-04-27T06:08:52.062Z,12.0714
2023-04-27T06:09:52.094Z,12.1429
2023-04-27T06:10:52.154Z,12.2857
2023-04-27T06:11:52.177Z,12.5
2023-04-27T06:12:52.216Z,12.6429
2023-04-27T06:13:52.265Z,12.8571
2023-04-27T06:14:52.307Z,13
2023-04-27T06:15:52.356Z,13.0714
2023-04-27T06:16:52.385Z,13.1429
2023-04-27T06:17:52.438Z,13.1429
2023-04-27T06:18:52.466Z,13.1429
2023-04-27T06:19:52.509Z,13.1429
2023-04-27T06:20:52.551Z,13.1429
2023-04-27T06:21:52.582Z,13.2143
2023-04-27T06:22:52.626Z,13.4286
2023-04-27T06:23:52.662Z,13.7857
2023-04-27T06:24:52.698Z,14.1429
2023-04-27T06:25:52.734Z,14.5714
2023-04-27T06:26:52.785Z,15
2023-04-27T06:27:52.832Z,15.3571
2023-04-27T06:28:52.886Z,15.6429
2023-04-27T06:29:52.902Z,15.8571
2023-04-27T06:30:52.932Z,15.8571
2023-04-27T06:31:53.022Z,16
2023-04-27T06:32:53.028Z,16.2857
2023-04-27T06:33:53.070Z,16.6429
2023-04-27T06:34:53.090Z,17
2023-04-27T06:35:53.136Z,17.3571
2023-04-27T06:36:53.171Z,17.5
2023-04-27T06:37:53.212Z,17.6429
2023-04-27T06:38:53.391Z,17.9286
2023-04-27T06:39:53.294Z,18
2023-04-27T06:40:53.353Z,18.0714
2023-04-27T06:41:53.369Z,18.2143
2023-04-27T06:42:53.414Z,18.3571
2023-04-27T06:43:53.452Z,18.6429
2023-04-27T06:44:53.494Z,18.8571
2023-04-27T06:45:53.561Z,18.9286
2023-04-27T06:46:53.581Z,18.9286
2023-04-27T06:47:53.705Z,18.7857
2023-04-27T06:48:53.661Z,18.6429
2023-04-27T06:49:53.699Z,18.3571
2023-04-27T06:50:53.745Z,18.1429
2023-04-27T06:51:53.777Z,17.9286
2023-04-27T06:52:53.820Z,17.7143
2023-04-27T06:53:53.871Z,17.5714
2023-04-27T06:54:53.905Z,17.4286
2023-04-27T06:55:53.957Z,17.2857
2023-04-27T06:56:53.986Z,17.1429
2023-04-27T06:57:54.031Z,16.9286
2023-04-27T06:58:54.069Z,16.7857
2023-04-27T06:59:54.113Z,16.6429
2023-04-27T07:00:54.153Z,16.5
2023-04-27T07:01:54.279Z,16.4286
2023-04-27T07:02:54.321Z,16.3571
2023-04-27T07:03:54.475Z,16.2857
2023-04-27T07:04:54.389Z,16.2143
2023-04-27T07:05:54.347Z,16.1429
2023-04-27T07:06:54.389Z,16.0714
2023-04-27T07:08:54.466Z,16.0714
2023-04-27T07:09:54.504Z,16
2023-04-27T07:10:54.544Z,16
2023-04-27T07:11:54.583Z,15.9286
2023-04-27T07:12:54.885Z,15.9286
2023-04-27T07:13:54.663Z,15.8571
2023-04-27T07:14:54.706Z,15.7857
2023-04-27T07:15:54.782Z,15.7857
2023-04-27T07:16:54.791Z,15.7857
2023-04-27T07:17:54.859Z,15.7857
2023-04-27T07:18:54.863Z,15.7143
2023-04-27T07:19:54.928Z,15.6429
2023-04-27T07:20:54.955Z,15.5714
2023-04-27T07:21:55.008Z,15.5
2023-04-27T07:22:55.035Z,15.3571
2023-04-27T07:23:56.114Z,15.2857
2023-04-27T07:24:55.124Z,15.2857
2023-04-27T07:25:55.163Z,15.2857
2023-04-27T07:26:55.206Z,15.2857
2023-04-27T07:27:55.254Z,15.2143
2023-04-27T07:28:55.286Z,15.3571
2023-04-27T07:29:55.324Z,15.6429
2023-04-27T07:30:55.365Z,15.8571
2023-04-27T07:31:55.446Z,16
2023-04-27T07:32:55.466Z,16.1429
2023-04-27T07:33:55.468Z,16.5
2023-04-27T07:34:55.524Z,16.5714
2023-04-27T07:35:55.549Z,16.7143
2023-04-27T07:36:55.600Z,16.7143
2023-04-27T07:37:55.646Z,16.6429
2023-04-27T07:38:55.678Z,16.7857
2023-04-27T07:39:55.714Z,17.1429
2023-04-27T07:40:55.744Z,17.5714
2023-04-27T07:41:55.781Z,18.1429
2023-04-27T07:42:55.814Z,18.6429
2023-04-27T07:43:55.851Z,19.2143
2023-04-27T07:44:55.897Z,19.5714
2023-04-27T07:45:55.980Z,19.8571
2023-04-27T07:46:55.977Z,20.1429
2023-04-27T07:47:57.622Z,20.3571
2023-04-27T07:48:56.066Z,20.4286
2023-04-27T07:49:56.101Z,20.3571
2023-04-27T07:50:56.129Z,20.2143
2023-04-27T07:51:56.186Z,20.2143
2023-04-27T07:52:56.206Z,20.3571
2023-04-27T07:53:56.255Z,20.2857
2023-04-27T07:54:56.289Z,20.0714
2023-04-27T07:55:56.347Z,19.8571
2023-04-27T07:56:56.389Z,19.6429
2023-04-27T07:57:56.415Z,19.4286
2023-04-27T07:58:56.445Z,19.2143
2023-04-27T07:59:56.475Z,19.1429
2023-04-27T08:00:56.514Z,19
2023-04-27T08:02:04.197Z,18.8571
2023-04-27T08:02:57.052Z,18.6429
2023-04-27T08:03:56.824Z,18.5
2023-04-27T08:04:57.164Z,18.3571
2023-04-27T08:05:56.994Z,18.0714
2023-04-27T08:06:57.324Z,17.7857
2023-04-27T08:07:57.104Z,17.7143
2023-04-27T08:08:56.820Z,17.7857
2023-04-27T08:09:56.863Z,17.9286
2023-04-27T08:10:56.906Z,18
2023-04-27T08:11:56.933Z,18.2143
2023-04-27T08:12:56.976Z,18.2857
2023-04-27T08:13:57.011Z,18.5
2023-04-27T08:14:57.043Z,18.8571
2023-04-27T08:15:57.086Z,19.0714
2023-04-27T08:16:57.190Z,19.1429
2023-04-27T08:17:57.230Z,19.0714
2023-04-27T08:18:58.649Z,18.8571
2023-04-27T08:19:57.246Z,18.6429
2023-04-27T08:20:57.286Z,18.4286
2023-04-27T08:21:57.330Z,18.2143
2023-04-27T08:22:57.368Z,17.9286
2023-04-27T08:23:57.418Z,17.6429
2023-04-27T08:24:57.455Z,17.4286
2023-04-27T08:25:57.518Z,17.1429
2023-04-27T08:26:57.541Z,16.9286
2023-04-27T08:27:57.578Z,16.7143
2023-04-27T08:28:57.670Z,16.5
2023-04-27T08:29:57.684Z,16.3571
2023-04-27T08:30:57.695Z,16.2143
2023-04-27T08:31:57.830Z,16
2023-04-27T08:32:57.801Z,15.9286
2023-04-27T08:33:57.812Z,15.7857
2023-04-27T08:34:57.865Z,15.7143
2023-04-27T08:35:57.888Z,15.7143
2023-04-27T08:36:57.938Z,15.9286
2023-04-27T08:37:57.968Z,16.2857
2023-04-27T08:38:58.012Z,16.5714
2023-04-27T08:39:58.056Z,17
2023-04-27T08:41:00.835Z,17.4286
2023-04-27T08:41:58.145Z,17.6429
2023-04-27T08:42:58.184Z,17.7143
2023-04-27T08:43:59.642Z,17.7857
2023-04-27T08:44:58.246Z,17.6429
2023-04-27T08:45:58.348Z,17.5
2023-04-27T08:46:58.373Z,17.3571
2023-04-27T08:47:58.397Z,17.2143
2023-04-27T08:48:58.397Z,17.0714
2023-04-27T08:49:58.435Z,16.9286
2023-04-27T08:50:58.486Z,16.7143
2023-04-27T08:51:58.535Z,16.5
2023-04-27T08:52:58.555Z,16.2857
2023-04-27T08:53:58.600Z,16.1429
2023-04-27T08:54:58.641Z,15.9286
2023-04-27T08:55:58.675Z,15.7143
2023-04-27T08:56:58.712Z,15.5714
2023-04-27T08:57:58.759Z,15.4286
2023-04-27T08:58:58.851Z,15.2857
2023-04-27T08:59:58.836Z,15.1429
2023-04-27T09:00:58.882Z,15.0714
2023-04-27T09:01:58.964Z,15
2023-04-27T09:02:59.128Z,15
2023-04-27T09:03:59.412Z,14.9286
2023-04-27T09:04:59.340Z,14.9286
2023-04-27T09:06:05.011Z,14.9286
2023-04-27T09:06:59.113Z,14.8571
2023-04-27T09:07:59.161Z,14.8571
2023-04-27T09:08:59.195Z,14.8571
2023-04-27T09:09:59.236Z,14.8571
2023-04-27T09:10:59.273Z,14.8571
2023-04-27T09:11:59.317Z,14.7857
2023-04-27T09:12:59.384Z,14.7857
2023-04-27T09:13:59.407Z,14.7857
2023-04-27T09:14:59.445Z,14.7857
2023-04-27T09:15:59.528Z,14.7857
2023-04-27T09:16:59.652Z,14.7857
2023-04-27T09:17:59.615Z,14.8571
2023-04-27T09:18:59.592Z,14.8571
2023-04-27T09:19:59.632Z,14.9286
2023-04-27T09:20:59.668Z,14.9286
2023-04-27T09:21:59.705Z,14.9286
2023-04-27T09:22:59.762Z,14.9286
2023-04-27T09:23:59.779Z,14.9286
2023-04-27T09:24:59.828Z,15
2023-04-27T09:25:59.874Z,15
2023-04-27T09:27:00.829Z,15
2023-04-27T09:27:59.944Z,15
2023-04-27T09:28:59.975Z,15
2023-04-27T09:30:00.020Z,15
2023-04-27T09:31:00.081Z,15
2023-04-27T09:32:00.177Z,15
2023-04-27T09:33:00.169Z,15
2023-04-27T09:34:00.264Z,14.9286
2023-04-27T09:35:00.233Z,14.9286
2023-04-27T09:36:00.262Z,14.9286
2023-04-27T09:37:00.302Z,14.9286
2023-04-27T09:38:00.343Z,14.9286
2023-04-27T09:39:00.381Z,15
2023-04-27T09:40:00.422Z,15
2023-04-27T09:41:00.489Z,15
2023-04-27T09:42:00.502Z,15.0714
2023-04-27T09:43:00.549Z,15.0714
2023-04-27T09:44:00.624Z,15
2023-04-27T09:45:00.659Z,15
2023-04-27T09:46:00.790Z,15
2023-04-27T09:47:00.694Z,15
2023-04-27T09:48:00.879Z,15
2023-04-27T09:49:00.827Z,14.9286
2023-04-27T09:50:00.824Z,14.9286
2023-04-27T09:51:00.879Z,14.9286
2023-04-27T09:52:00.907Z,14.8571
2023-04-27T09:53:00.976Z,14.8571
2023-04-27T09:54:00.990Z,14.7857
2023-04-27T09:55:01.033Z,14.7857
2023-04-27T09:56:01.065Z,14.7857
2023-04-27T09:57:01.092Z,14.7857
2023-04-27T09:58:01.177Z,14.8571
2023-04-27T09:59:01.173Z,14.8571
2023-04-27T10:00:01.209Z,14.8571
2023-04-27T10:01:01.302Z,14.9286
2023-04-27T10:02:07.373Z,15
2023-04-27T10:03:01.419Z,15
2023-04-27T10:04:01.497Z,15.0714
2023-04-27T10:05:01.458Z,15.1429
2023-04-27T10:06:01.450Z,15.1429
2023-04-27T10:07:01.508Z,15.2143
2023-04-27T10:08:01.530Z,15.2143
2023-04-27T10:09:01.571Z,15.2143
2023-04-27T10:10:01.625Z,15.1429
2023-04-27T10:11:01.652Z,15.0714
2023-04-27T10:12:01.695Z,15.0714
2023-04-27T10:13:01.793Z,15
2023-04-27T10:14:01.766Z,15
2023-04-27T10:15:01.809Z,15
2023-04-27T10:16:01.865Z,15
2023-04-27T10:17:01.945Z,15
2023-04-27T10:18:01.968Z,15
2023-04-27T10:19:01.959Z,14.9286
2023-04-27T10:20:02.001Z,14.9286
2023-04-27T10:21:02.046Z,14.8571
2023-04-27T10:22:02.068Z,14.7857
2023-04-27T10:23:02.113Z,14.7857
2023-04-27T10:24:02.153Z,14.7857
2023-04-27T10:25:02.203Z,14.7143
2023-04-27T10:26:02.232Z,14.7143
2023-04-27T10:27:02.265Z,14.7143
2023-04-27T10:28:02.318Z,14.7143
2023-04-27T10:29:02.367Z,14.7143
2023-04-27T10:30:02.395Z,14.7143
2023-04-27T10:31:02.485Z,14.7857
2023-04-27T10:32:02.489Z,14.7857
2023-04-27T10:33:02.636Z,14.7857
2023-04-27T10:34:02.573Z,14.7857
2023-04-27T10:35:02.627Z,14.7857
2023-04-27T10:36:02.644Z,14.7857
2023-04-27T10:37:02.674Z,14.7857
2023-04-27T10:38:02.710Z,14.8571
2023-04-27T10:39:02.776Z,14.9286
2023-04-27T10:40:02.784Z,15
2023-04-27T10:41:02.855Z,15.0714
2023-04-27T10:42:02.858Z,15.0714
2023-04-27T10:43:02.892Z,15.2143
2023-04-27T10:44:02.957Z,15.2857
2023-04-27T10:45:02.982Z,15.3571
2023-04-27T10:46:03.047Z,15.4286
2023-04-27T10:47:03.066Z,15.5
2023-04-27T10:48:03.133Z,15.5714
2023-04-27T10:49:03.125Z,15.7143
2023-04-27T10:50:03.179Z,15.7857
2023-04-27T10:51:03.203Z,15.9286
2023-04-27T10:52:03.274Z,16
2023-04-27T10:53:03.293Z,16.0714
2023-04-27T10:54:03.319Z,16.2143
2023-04-27T10:55:03.355Z,16.2857
2023-04-27T10:56:03.398Z,16.3571
2023-04-27T10:57:03.440Z,16.4286
2023-04-27T10:58:03.467Z,16.5
2023-04-27T10:59:03.520Z,16.5
2023-04-27T11:00:03.551Z,16.5
2023-04-27T11:01:03.593Z,16.4286
2023-04-27T11:02:03.706Z,16.4286
2023-04-27T11:03:03.729Z,16.3571
2023-04-27T11:04:03.722Z,16.3571
2023-04-27T11:05:03.822Z,16.2857
2023-04-27T11:06:03.787Z,16.2857
2023-04-27T11:07:03.859Z,16.2143
2023-04-27T11:08:03.885Z,16.2143
2023-04-27T11:09:03.903Z,16.1429
2023-04-27T11:10:03.981Z,16.0714
2023-04-27T11:11:03.971Z,16.0714
2023-04-27T11:12:04.020Z,16
2023-04-27T11:13:04.050Z,16
2023-04-27T11:14:04.104Z,15.9286
2023-04-27T11:15:04.116Z,15.8571
2023-04-27T11:16:04.194Z,15.8571
2023-04-27T11:17:04.202Z,15.7857
2023-04-27T11:18:04.292Z,15.7857
2023-04-27T11:19:04.270Z,15.7143
2023-04-27T11:20:04.315Z,15.7143
2023-04-27T11:21:04.362Z,15.7143
2023-04-27T11:22:04.433Z,15.7143
2023-04-27T11:23:04.455Z,15.6429
2023-04-27T11:24:04.517Z,15.5714
2023-04-27T11:25:04.540Z,15.5714
2023-04-27T11:26:04.571Z,15.5
2023-04-27T11:27:04.642Z,15.5
2023-04-27T11:28:04.653Z,15.5
2023-04-27T11:29:04.699Z,15.5
2023-04-27T11:30:04.732Z,15.5
2023-04-27T11:31:04.817Z,15.5
2023-04-27T11:32:04.901Z,15.5
2023-04-27T11:33:04.919Z,15.5714
2023-04-27T11:34:04.904Z,15.6429
2023-04-27T11:35:04.920Z,15.6429
2023-04-27T11:36:04.972Z,15.7143
2023-04-27T11:38:05.048Z,15.7143
2023-04-27T11:39:05.181Z,15.7857
2023-04-27T11:40:05.133Z,15.7857
2023-04-27T11:41:05.183Z,15.7857
2023-04-27T11:42:05.211Z,15.7857
2023-04-27T11:43:06.260Z,15.7857
2023-04-27T11:44:05.290Z,15.7143
2023-04-27T11:45:05.333Z,15.7143
2023-04-27T11:46:05.365Z,15.7143
2023-04-27T11:47:05.440Z,15.7143
2023-04-27T11:48:05.498Z,15.6429
2023-04-27T11:49:05.497Z,15.6429
2023-04-27T11:50:05.530Z,15.6429
2023-04-27T11:51:05.561Z,15.6429
2023-04-27T11:52:05.604Z,15.6429
2023-04-27T11:53:05.669Z,15.6429
2023-04-27T11:54:05.675Z,15.6429
2023-04-27T11:55:05.720Z,15.6429
2023-04-27T11:56:05.773Z,15.6429
2023-04-27T11:57:05.820Z,15.7143
2023-04-27T11:58:05.862Z,15.7143
2023-04-27T11:59:05.882Z,15.7857
2023-04-27T12:00:05.927Z,15.7857
2023-04-27T12:01:05.964Z,15.8571
2023-04-27T12:02:06.059Z,15.8571
2023-04-27T12:03:06.242Z,15.8571
2023-04-27T12:04:06.318Z,15.9286
2023-04-27T12:05:06.380Z,15.9286
2023-04-27T12:07:06.194Z,15.9286
2023-04-27T12:08:06.245Z,15.9286
2023-04-27T12:09:06.274Z,15.9286
2023-04-27T12:10:06.319Z,15.9286
2023-04-27T12:11:06.347Z,15.9286
2023-04-27T12:12:06.385Z,15.9286
2023-04-27T12:13:06.421Z,15.9286
2023-04-27T12:14:06.457Z,15.9286
2023-04-27T12:15:06.501Z,15.9286
2023-04-27T12:16:06.541Z,15.9286
2023-04-27T12:17:06.637Z,16
2023-04-27T12:18:06.696Z,15.9286
2023-04-27T12:19:06.665Z,16
2023-04-27T12:20:06.696Z,16
2023-04-27T12:21:08.228Z,16
2023-04-27T12:22:06.776Z,16
2023-04-27T12:23:06.816Z,16
2023-04-27T12:24:06.877Z,16
2023-04-27T12:25:06.891Z,16
2023-04-27T12:26:06.931Z,16.0714
2023-04-27T12:27:06.969Z,16.0714
2023-04-27T12:28:07.014Z,16.0714
2023-04-27T12:29:07.089Z,16.1429
2023-04-27T12:30:07.086Z,16.1429